Time;durP1;ratioP1;P1;durP2;ratioP2;P2;SDS_P1;SDS_P2;PMS_P1;PMS_P2;Temp;Humidity;BMP_temperature;BMP_pressure;BME280_temperature;BME280_humidity;BME280_pressure;Samples;Min_cycle;Max_cycle;Signal;HPM_P1;HPM_P2
2022/11/03 00:00:17;;;;;;;11.23;6.20;;;;;;;3.92;100.00;96318.44;1030366;28;20269;-72
2022/11/03 00:00:47;;;;;;;11.40;6.68;;;;;;;3.91;100.00;96322.00;1034495;28;20181;-71
2022/11/03 00:01:18;;;;;;;11.75;6.18;;;;;;;3.94;100.00;96326.00;1026692;28;20146;-72
2022/11/03 00:01:49;;;;;;;10.30;6.47;;;;;;;3.87;100.00;96312.25;1031931;28;20026;-71
2022/11/03 00:02:20;;;;;;;10.45;5.93;;;;;;;3.91;100.00;96323.81;1033974;28;20037;-70
2022/11/03 00:02:50;;;;;;;10.93;6.65;;;;;;;3.86;100.00;96316.66;1034530;28;20268;-70
2022/11/03 00:03:21;;;;;;;10.60;7.13;;;;;;;3.89;100.00;96316.25;1030697;28;20034;-70
2022/11/03 00:03:51;;;;;;;12.95;5.90;;;;;;;3.90;100.00;96319.63;1034649;28;20021;-73
2022/11/03 00:04:21;;;;;;;10.40;6.20;;;;;;;3.87;100.00;96313.03;1030552;28;20022;-71
2022/11/03 00:04:52;;;;;;;14.45;6.95;;;;;;;3.88;100.00;96319.81;1022337;29;20027;-72
2022/11/03 00:06:11;;;;;;;10.90;6.40;;;;;;;3.89;100.00;96318.84;1021043;29;20095;-71
2022/11/03 00:06:43;;;;;;;11.10;6.20;;;;;;;3.90;100.00;96324.81;1024448;28;20355;-73
2022/11/03 00:07:19;;;;;;;12.90;6.50;;;;;;;3.86;100.00;96310.66;1026524;28;20031;-71
2022/11/03 00:07:49;;;;;;;14.55;6.88;;;;;;;3.90;100.00;96322.22;1025790;28;20772;-71
2022/11/03 00:08:20;;;;;;;13.82;7.07;;;;;;;3.81;100.00;96303.47;1026484;28;20278;-71
2022/11/03 00:08:50;;;;;;;12.35;7.00;;;;;;;3.91;100.00;96324.59;1030140;28;20026;-71
2022/11/03 00:09:21;;;;;;;12.82;6.50;;;;;;;3.92;100.00;96321.03;1034515;28;20033;-71
2022/11/03 00:09:52;;;;;;;16.35;6.60;;;;;;;3.92;100.00;96323.63;1030418;28;20069;-73
2022/11/03 00:10:22;;;;;;;12.93;6.20;;;;;;;3.91;100.00;96323.81;1030259;28;20269;-70
2022/11/03 00:10:53;;;;;;;11.98;7.50;;;;;;;3.91;100.00;96319.41;1026563;28;20069;-72
2022/11/03 00:11:23;;;;;;;10.82;6.43;;;;;;;3.90;100.00;96322.22;1030583;28;20029;-72
2022/11/03 00:11:54;;;;;;;15.63;5.80;;;;;;;3.90;100.00;96322.22;1027087;28;20023;-71
2022/11/03 00:12:24;;;;;;;13.43;7.70;;;;;;;3.83;100.00;96313.66;1029845;28;20109;-71
2022/11/03 00:12:54;;;;;;;11.70;5.68;;;;;;;3.90;100.00;96320.44;1026377;28;20033;-71
2022/11/03 00:13:25;;;;;;;10.82;6.45;;;;;;;3.88;100.00;96313.84;1025040;28;20031;-70
2022/11/03 00:13:55;;;;;;;12.10;5.63;;;;;;;3.90;100.00;96322.22;1026245;28;20015;-72
2022/11/03 00:14:26;;;;;;;8.57;5.95;;;;;;;3.90;100.00;96317.81;1022493;28;20031;-71
2022/11/03 00:14:57;;;;;;;10.60;6.00;;;;;;;3.90;100.00;96317.81;1030424;28;20034;-72
2022/11/03 00:15:27;;;;;;;16.02;5.95;;;;;;;3.89;100.00;96316.25;1034356;28;20029;-72
2022/11/03 00:15:58;;;;;;;14.65;5.97;;;;;;;3.89;100.00;96310.22;1029075;28;20026;-69
2022/11/03 00:16:29;;;;;;;11.13;5.10;;;;;;;3.84;100.00;96303.06;1018422;29;20091;-72
2022/11/03 00:16:59;;;;;;;11.63;6.18;;;;;;;3.72;100.00;96284.75;1022235;28;20019;-71
2022/11/03 00:17:29;;;;;;;10.35;5.93;;;;;;;3.91;100.00;96314.22;1022585;28;20023;-71
2022/11/03 00:18:00;;;;;;;9.70;5.90;;;;;;;3.91;100.00;96314.22;1022771;28;20023;-72
2022/11/03 00:18:30;;;;;;;11.15;6.68;;;;;;;3.92;100.00;96315.84;1030483;28;20471;-72
2022/11/03 00:19:01;;;;;;;11.75;6.32;;;;;;;3.92;100.00;96315.00;1025545;28;20026;-73
2022/11/03 00:19:31;;;;;;;11.70;6.13;;;;;;;3.87;100.00;96313.03;1030554;28;20048;-72
2022/11/03 00:20:02;;;;;;;11.80;6.20;;;;;;;3.92;100.00;96318.44;1030523;28;20077;-72
2022/11/03 00:20:32;;;;;;;10.48;5.80;;;;;;;3.92;100.00;96320.19;1026591;28;20022;-72
2022/11/03 00:21:05;;;;;;;12.95;6.53;;;;;;;3.92;100.00;96320.19;1026434;28;20086;-71
2022/11/03 00:21:36;;;;;;;11.82;5.63;;;;;;;3.90;100.00;96312.63;1018610;29;20050;-70
2022/11/03 00:22:06;;;;;;;10.43;5.90;;;;;;;3.89;100.00;96308.44;1021892;29;20302;-71
2022/11/03 00:22:37;;;;;;;11.52;5.97;;;;;;;3.84;100.00;96305.66;1018265;29;20282;-72
2022/11/03 00:23:07;;;;;;;11.55;5.53;;;;;;;3.91;100.00;96316.03;1018666;28;20032;-72
2022/11/03 00:23:41;;;;;;;17.98;6.75;;;;;;;3.88;100.00;96314.63;1026427;28;20027;-72
2022/11/03 00:24:12;;;;;;;9.15;5.57;;;;;;;3.90;100.00;96317.81;1025991;28;20019;-70
2022/11/03 00:24:42;;;;;;;9.23;5.65;;;;;;;3.90;100.00;96312.63;1026898;28;20265;-70
2022/11/03 00:25:13;;;;;;;9.75;6.03;;;;;;;3.94;100.00;96319.00;1024970;28;20027;-71
2022/11/03 00:25:43;;;;;;;10.68;5.63;;;;;;;3.93;100.00;96317.41;1020941;28;20039;-72
2022/11/03 00:26:19;;;;;;;9.63;5.53;;;;;;;3.92;100.00;96321.03;1026599;28;20102;-72
2022/11/03 00:26:50;;;;;;;9.63;6.10;;;;;;;3.92;100.00;96321.03;1031515;28;20057;-71
2022/11/03 00:27:23;;;;;;;9.38;5.75;;;;;;;3.86;100.00;96319.25;1036935;28;20269;-71
2022/11/03 00:27:54;;;;;;;10.77;5.70;;;;;;;3.91;100.00;96314.22;1038635;28;20024;-72
2022/11/03 00:28:25;;;;;;;12.07;5.60;;;;;;;3.91;100.00;96319.41;1038553;28;20302;-72
2022/11/03 00:29:00;;;;;;;9.48;5.15;;;;;;;3.89;100.00;96315.41;1024776;28;20312;-71
2022/11/03 00:29:30;;;;;;;10.23;5.20;;;;;;;3.91;100.00;96316.81;1026355;28;20041;-72
2022/11/03 00:30:01;;;;;;;12.50;6.38;;;;;;;3.92;100.00;96322.78;1022616;29;20311;-74
2022/11/03 00:30:31;;;;;;;15.15;6.15;;;;;;;3.92;100.00;96315.00;1023017;28;20031;-71
2022/11/03 00:31:06;;;;;;;20.10;7.78;;;;;;;3.93;100.00;96321.81;1027077;28;20035;-70
2022/11/03 00:31:37;;;;;;;12.93;6.45;;;;;;;3.85;100.00;96309.06;1026423;28;20026;-71
2022/11/03 00:32:07;;;;;;;21.58;7.57;;;;;;;3.92;100.00;96321.03;1018560;29;20310;-70
2022/11/03 00:32:38;;;;;;;10.77;6.20;;;;;;;3.95;100.00;96314.59;1021032;28;20266;-71
2022/11/03 00:33:08;;;;;;;14.70;7.35;;;;;;;3.97;100.00;96313.41;1026425;28;20612;-70
2022/11/03 00:33:39;;;;;;;14.93;7.22;;;;;;;3.97;100.00;96313.41;1026392;28;20663;-72
2022/11/03 00:34:10;;;;;;;14.30;6.88;;;;;;;3.96;100.00;96314.41;1030585;28;20545;-71
2022/11/03 00:34:40;;;;;;;14.07;6.35;;;;;;;3.96;100.00;96317.00;1028521;28;20109;-71
2022/11/03 00:35:13;;;;;;;14.60;7.18;;;;;;;3.97;100.00;96318.59;1022594;28;20030;-69
2022/11/03 00:35:44;;;;;;;14.00;6.90;;;;;;;3.96;100.00;96321.41;1026458;28;20031;-71
2022/11/03 00:36:38;;;;;;;16.13;7.15;;;;;;;3.96;100.00;96322.19;1027359;28;20286;-70
2022/11/03 00:37:09;;;;;;;13.10;7.03;;;;;;;3.94;100.00;96319.00;1026689;28;20089;-71
2022/11/03 00:37:39;;;;;;;9.70;5.50;;;;;;;3.95;100.00;96320.59;1022363;29;20337;-70
2022/11/03 00:38:10;;;;;;;13.20;6.60;;;;;;;3.94;100.00;96316.41;1026268;28;20030;-73
2022/11/03 00:38:44;;;;;;;15.20;6.50;;;;;;;3.93;100.00;96311.44;1022624;29;20034;-73
2022/11/03 00:39:14;;;;;;;10.05;6.35;;;;;;;3.95;100.00;96315.41;1019377;28;20530;-73
2022/11/03 00:39:45;;;;;;;12.75;6.45;;;;;;;3.89;100.00;96311.06;1021664;28;20275;-71
2022/11/03 00:40:15;;;;;;;9.50;5.90;;;;;;;3.93;100.00;96312.22;1022990;28;20042;-72
2022/11/03 00:40:52;;;;;;;16.25;7.25;;;;;;;3.92;100.00;96320.19;1027118;28;20033;-70
2022/11/03 00:41:23;;;;;;;10.60;5.82;;;;;;;3.83;100.00;96301.47;1031356;28;20027;-71
2022/11/03 00:41:53;;;;;;;12.05;6.47;;;;;;;3.87;100.00;96307.84;1034507;28;20263;-71
2022/11/03 00:42:23;;;;;;;12.45;5.70;;;;;;;3.89;100.00;96310.22;1028543;28;20029;-70
2022/11/03 00:42:54;;;;;;;12.20;5.90;;;;;;;3.89;100.00;96312.81;1026554;28;20022;-68
2022/11/03 00:43:25;;;;;;;12.70;6.40;;;;;;;3.90;100.00;96315.22;1030409;28;20019;-70
2022/11/03 00:43:56;;;;;;;12.52;5.60;;;;;;;3.89;100.00;96311.06;1026599;28;20113;-72
2022/11/03 00:44:26;;;;;;;10.20;6.93;;;;;;;3.82;100.00;96299.88;1030348;28;20415;-72
2022/11/03 00:44:57;;;;;;;15.65;7.07;;;;;;;3.86;100.00;96306.28;1026557;28;20262;-72
2022/11/03 00:45:27;;;;;;;12.38;6.07;;;;;;;3.87;100.00;96307.84;1034505;28;20029;-72
2022/11/03 00:45:57;;;;;;;9.65;6.35;;;;;;;3.87;100.00;96300.06;1026582;28;20034;-71
2022/11/03 00:46:29;;;;;;;10.60;6.25;;;;;;;3.88;100.00;96306.03;1026230;28;20117;-72
2022/11/03 00:46:59;;;;;;;12.80;5.93;;;;;;;3.87;100.00;96302.66;1026381;28;20034;-71
2022/11/03 00:47:30;;;;;;;10.57;6.57;;;;;;;3.86;100.00;96302.88;1026652;28;20278;-71
2022/11/03 00:48:49;;;;;;;8.68;5.78;;;;;;;3.85;100.00;96304.66;1028768;28;20194;-73
2022/11/03 00:49:20;;;;;;;10.27;5.43;;;;;;;3.85;100.00;96307.25;1030378;28;20699;-71
2022/11/03 00:49:50;;;;;;;18.13;6.57;;;;;;;3.83;100.00;96300.69;1032600;28;20037;-70
2022/11/03 00:50:21;;;;;;;10.85;5.70;;;;;;;3.82;100.00;96307.66;1030307;28;20041;-73
2022/11/03 00:50:51;;;;;;;13.30;7.10;;;;;;;3.73;100.00;96288.94;1034438;28;20041;-71
2022/11/03 00:51:26;;;;;;;12.20;5.60;;;;;;;3.78;100.00;96299.50;1034449;28;20029;-72
2022/11/03 00:51:56;;;;;;;17.13;6.25;;;;;;;3.73;100.00;96293.34;1030433;28;20480;-71
2022/11/03 00:52:27;;;;;;;9.30;5.43;;;;;;;3.72;100.00;96296.91;1029652;28;20273;-71
2022/11/03 00:52:57;;;;;;;8.20;5.28;;;;;;;3.78;100.00;96304.69;1026483;28;20504;-71
2022/11/03 00:53:28;;;;;;;13.50;6.05;;;;;;;3.80;100.00;96306.28;1022306;28;20259;-71
2022/11/03 00:53:59;;;;;;;12.40;6.22;;;;;;;3.78;100.00;96303.88;1022550;29;20114;-72
2022/11/03 00:54:30;;;;;;;10.27;5.88;;;;;;;3.78;100.00;96306.47;1018406;29;20892;-71
2022/11/03 00:55:00;;;;;;;11.82;5.75;;;;;;;3.80;100.00;96306.28;1026182;28;20258;-71
2022/11/03 00:55:31;;;;;;;13.13;5.20;;;;;;;3.77;100.00;96303.09;1026381;28;20562;-72
2022/11/03 00:56:02;;;;;;;13.32;5.90;;;;;;;3.78;100.00;96301.28;1026420;28;20030;-70
2022/11/03 00:56:34;;;;;;;17.52;7.10;;;;;;;3.72;100.00;96289.13;1022109;29;20042;-70
2022/11/03 00:57:04;;;;;;;14.45;5.63;;;;;;;3.76;100.00;96296.31;1022550;29;20271;-73
2022/11/03 00:57:35;;;;;;;12.07;6.00;;;;;;;3.76;100.00;96306.69;1022321;28;20291;-71
2022/11/03 00:58:05;;;;;;;16.27;6.05;;;;;;;3.77;100.00;96307.50;1030842;28;20030;-70
2022/11/03 00:58:36;;;;;;;15.73;7.35;;;;;;;3.76;100.00;96301.50;1030276;28;20669;-71
2022/11/03 00:59:07;;;;;;;12.23;5.28;;;;;;;3.69;100.00;96295.53;1030332;28;20423;-70
2022/11/03 00:59:38;;;;;;;12.35;5.75;;;;;;;3.76;100.00;96298.91;1018493;29;20024;-70
2022/11/03 01:00:09;;;;;;;12.07;6.30;;;;;;;3.69;100.00;96297.31;1018528;29;20347;-70
2022/11/03 01:00:39;;;;;;;15.23;6.20;;;;;;;3.74;100.00;96295.72;1026581;28;20034;-71
2022/11/03 01:01:14;;;;;;;12.15;5.78;;;;;;;3.76;100.00;96298.13;1026309;28;20262;-71
2022/11/03 01:01:44;;;;;;;15.30;6.30;;;;;;;3.76;100.00;96295.53;1026280;28;20037;-71
2022/11/03 01:02:15;;;;;;;13.52;6.63;;;;;;;3.76;100.00;96298.91;1025984;28;20778;-70
2022/11/03 01:02:45;;;;;;;11.65;6.28;;;;;;;3.74;100.00;96298.31;1027531;28;20106;-71
2022/11/03 01:03:16;;;;;;;9.52;5.30;;;;;;;3.75;100.00;96294.69;1034926;28;20033;-73
2022/11/03 01:07:05;;;;;;;11.48;5.75;;;;;;;3.61;100.00;96282.78;1038334;28;20855;-70
2022/11/03 01:07:35;;;;;;;9.40;5.90;;;;;;;3.68;100.00;96283.56;1038381;28;20310;-71
2022/11/03 01:08:06;;;;;;;15.15;5.80;;;;;;;3.67;100.00;96281.97;1038574;28;20033;-70
2022/11/03 01:08:36;;;;;;;12.48;6.45;;;;;;;3.67;100.00;96292.34;1033309;28;20030;-71
2022/11/03 01:09:07;;;;;;;10.75;6.05;;;;;;;3.65;100.00;96286.56;1030160;28;20031;-70
2022/11/03 01:09:38;;;;;;;9.90;5.57;;;;;;;3.65;100.00;96290.94;1026467;28;20026;-72
2022/11/03 01:10:10;;;;;;;13.18;5.60;;;;;;;3.65;100.00;96285.75;1023077;28;20416;-71
2022/11/03 01:11:42;;;;;;;13.07;6.07;;;;;;;3.60;100.00;96275.22;1030750;28;20368;-69
2022/11/03 01:11:43;;;;;;;10.50;5.78;;;;;;;3.63;100.00;96285.97;1034373;28;20308;-72
2022/11/03 01:12:15;;;;;;;11.55;6.45;;;;;;;3.61;100.00;96285.38;1025398;28;20054;-70
2022/11/03 01:12:46;;;;;;;10.35;5.68;;;;;;;3.63;100.00;96282.59;1018322;29;20291;-72
2022/11/03 01:13:16;;;;;;;10.85;6.30;;;;;;;3.62;100.00;96289.59;1021412;29;20357;-72
2022/11/03 01:13:47;;;;;;;10.05;5.93;;;;;;;3.62;100.00;96291.34;1025809;28;20044;-70
2022/11/03 01:14:17;;;;;;;17.90;6.10;;;;;;;3.61;100.00;96277.59;1034652;28;20037;-70
2022/11/03 01:14:51;;;;;;;10.50;6.00;;;;;;;3.52;100.00;96269.25;1030380;28;20095;-70
2022/11/03 01:15:21;;;;;;;10.77;5.78;;;;;;;3.60;100.00;96285.59;1021894;29;20378;-71
2022/11/03 01:15:56;;;;;;;12.45;5.90;;;;;;;3.58;100.00;96278.00;1026395;28;20361;-70
2022/11/03 01:16:27;;;;;;;11.55;6.45;;;;;;;3.62;100.00;96278.38;1026262;28;20031;-70
2022/11/03 01:16:58;;;;;;;10.77;6.00;;;;;;;3.60;100.00;96280.41;1018904;28;20276;-71
2022/11/03 01:17:28;;;;;;;13.15;6.10;;;;;;;3.59;100.00;96281.38;1022296;29;20274;-71
2022/11/03 01:17:59;;;;;;;14.27;6.60;;;;;;;3.57;100.00;96286.78;1026373;28;20031;-71
2022/11/03 01:18:29;;;;;;;11.07;5.35;;;;;;;3.50;100.00;96278.25;1026434;28;20034;-71
2022/11/03 01:19:00;;;;;;;9.40;5.70;;;;;;;3.50;100.00;96273.06;1026255;28;20403;-70
2022/11/03 01:19:30;;;;;;;12.32;6.78;;;;;;;3.55;100.00;96283.59;1018337;28;20058;-71
2022/11/03 01:20:01;;;;;;;20.38;6.75;;;;;;;3.54;100.00;96276.81;1026414;28;20547;-69
2022/11/03 01:20:31;;;;;;;15.90;6.25;;;;;;;3.57;100.00;96284.19;1026089;28;20031;-71
2022/11/03 01:21:02;;;;;;;10.07;6.03;;;;;;;3.57;100.00;96281.59;1026403;28;20409;-71
2022/11/03 01:21:33;;;;;;;14.73;6.03;;;;;;;3.53;100.00;96276.03;1030372;28;20030;-73
2022/11/03 01:22:03;;;;;;;15.05;5.97;;;;;;;3.46;100.00;96270.06;1022776;28;20031;-70
2022/11/03 01:22:34;;;;;;;10.77;5.95;;;;;;;3.52;100.00;96279.63;1017571;29;20032;-70
2022/11/03 01:23:04;;;;;;;11.48;5.85;;;;;;;3.52;100.00;96269.25;1024972;28;20042;-69
2022/11/03 01:23:34;;;;;;;24.63;6.30;;;;;;;3.52;100.00;96279.63;1026793;28;20027;-71
2022/11/03 01:24:05;;;;;;;13.32;6.40;;;;;;;3.43;100.00;96260.09;1026461;28;20022;-71
2022/11/03 01:24:36;;;;;;;11.85;5.82;;;;;;;3.47;100.00;96266.47;1026674;28;20027;-70
2022/11/03 01:25:06;;;;;;;12.80;6.50;;;;;;;3.53;100.00;96270.06;1022576;29;20028;-70
2022/11/03 01:25:37;;;;;;;9.75;6.10;;;;;;;3.53;100.00;96268.25;1026389;28;20074;-71
2022/11/03 01:26:10;;;;;;;12.10;5.97;;;;;;;3.51;100.00;96272.03;1030550;28;20038;-71
2022/11/03 01:26:40;;;;;;;9.50;6.40;;;;;;;3.50;100.00;96268.66;1014941;29;20467;-70
2022/11/03 01:27:17;;;;;;;13.65;5.97;;;;;;;3.51;100.00;96272.84;1026475;28;20270;-70
2022/11/03 01:27:48;;;;;;;9.40;5.50;;;;;;;3.47;100.00;96266.47;1023687;28;20057;-70
2022/11/03 01:28:18;;;;;;;10.10;5.90;;;;;;;3.51;100.00;96270.25;1028983;28;20270;-70
2022/11/03 01:28:48;;;;;;;13.60;5.78;;;;;;;3.46;100.00;96256.31;1029625;28;20041;-70
2022/11/03 01:29:59;;;;;;;13.05;5.70;;;;;;;3.47;100.00;96261.28;1026663;28;20042;-71
2022/11/03 01:30:29;;;;;;;8.20;5.15;;;;;;;3.47;100.00;96266.47;1031673;28;20392;-71
2022/11/03 01:31:23;;;;;;;10.48;5.32;;;;;;;3.46;100.00;96270.06;1034608;28;20303;-71
2022/11/03 01:31:53;;;;;;;11.13;5.50;;;;;;;3.45;100.00;96263.25;1025126;28;20027;-70
2022/11/03 01:32:24;;;;;;;12.27;5.97;;;;;;;3.45;100.00;96265.88;1028958;28;20276;-70
2022/11/03 01:32:54;;;;;;;10.52;5.80;;;;;;;3.45;100.00;96265.88;1032254;28;20034;-71
2022/11/03 01:33:25;;;;;;;12.13;5.35;;;;;;;3.45;100.00;96262.47;1030708;28;20042;-70
2022/11/03 01:33:55;;;;;;;14.52;6.63;;;;;;;3.27;100.00;96239.78;1030610;28;20583;-70
2022/11/03 01:34:26;;;;;;;10.70;6.15;;;;;;;3.39;100.00;96258.91;1030124;28;20105;-69
2022/11/03 01:34:59;;;;;;;12.25;5.78;;;;;;;3.44;100.00;96256.50;1026807;28;20587;-70
2022/11/03 01:35:29;;;;;;;10.57;5.55;;;;;;;3.45;100.00;96259.88;1022538;28;20517;-70
2022/11/03 01:36:00;;;;;;;13.13;5.57;;;;;;;3.44;100.00;96256.50;1023144;28;20282;-71
2022/11/03 01:36:33;;;;;;;11.13;5.97;;;;;;;3.44;100.00;96261.69;1030125;28;20022;-72
2022/11/03 01:37:07;;;;;;;9.27;5.72;;;;;;;3.45;100.00;96254.69;1030700;28;20737;-70
2022/11/03 01:37:37;;;;;;;12.65;6.00;;;;;;;3.41;100.00;96254.31;1026773;28;20258;-71
2022/11/03 01:38:07;;;;;;;9.93;6.10;;;;;;;3.44;100.00;96251.31;1026304;28;20278;-70
2022/11/03 01:38:38;;;;;;;8.63;5.57;;;;;;;3.45;100.00;96258.06;1027138;28;20023;-72
2022/11/03 01:39:12;;;;;;;10.65;6.40;;;;;;;3.37;100.00;96240.16;1022599;29;20019;-70
2022/11/03 01:39:43;;;;;;;12.90;5.50;;;;;;;3.44;100.00;96253.09;1022060;29;20027;-72
2022/11/03 01:40:13;;;;;;;9.07;5.55;;;;;;;3.43;100.00;96249.72;1014645;29;20883;-71
2022/11/03 01:40:43;;;;;;;8.35;5.97;;;;;;;3.42;100.00;96248.13;1022570;29;20576;-72
2022/11/03 01:41:21;;;;;;;9.52;5.68;;;;;;;3.40;100.00;96247.53;1030410;28;20487;-73
2022/11/03 01:41:52;;;;;;;15.85;6.45;;;;;;;3.42;100.00;96247.31;1030644;28;20115;-71
2022/11/03 01:42:22;;;;;;;10.93;6.07;;;;;;;3.43;100.00;96249.72;1021848;29;20274;-68
2022/11/03 01:42:53;;;;;;;12.35;6.55;;;;;;;3.36;100.00;96242.97;1022603;29;20027;-70
2022/11/03 01:43:25;;;;;;;12.60;5.85;;;;;;;3.38;100.00;96246.13;1022468;29;20086;-70
2022/11/03 01:44:07;;;;;;;9.73;5.82;;;;;;;3.40;100.00;96257.13;1026530;28;20034;-70
2022/11/03 01:44:41;;;;;;;11.65;6.10;;;;;;;3.37;100.00;96237.56;1026548;28;20628;-72
2022/11/03 01:45:11;;;;;;;8.85;5.90;;;;;;;3.39;100.00;96245.94;1035203;28;20353;-70
2022/11/03 01:45:42;;;;;;;10.13;6.47;;;;;;;3.36;100.00;96248.94;1030625;28;20282;-71
2022/11/03 01:46:16;;;;;;;11.15;6.78;;;;;;;3.38;100.00;96241.75;1022688;29;20075;-72
2022/11/03 01:46:48;;;;;;;15.20;6.53;;;;;;;3.31;100.00;96233.97;1018464;29;20028;-71
2022/11/03 01:47:25;;;;;;;12.77;6.20;;;;;;;3.35;100.00;96236.16;1028461;28;20320;-69
2022/11/03 01:47:55;;;;;;;15.82;6.13;;;;;;;3.37;100.00;96240.16;1032328;28;20636;-71
2022/11/03 01:48:26;;;;;;;15.45;5.78;;;;;;;3.36;100.00;96238.56;1022354;28;20282;-71
2022/11/03 01:49:05;;;;;;;14.88;6.35;;;;;;;3.32;100.00;96240.00;1018673;29;20023;-71
2022/11/03 01:50:12;;;;;;;12.73;5.68;;;;;;;3.37;100.00;96239.38;1018861;29;20532;-70
2022/11/03 01:50:42;;;;;;;11.82;5.90;;;;;;;3.31;100.00;96231.38;1020395;29;20279;-71
2022/11/03 01:51:13;;;;;;;15.93;6.32;;;;;;;3.34;100.00;96235.38;1022210;29;20278;-70
2022/11/03 01:51:45;;;;;;;10.68;5.55;;;;;;;3.32;100.00;96237.41;1019073;29;20024;-71
2022/11/03 01:52:24;;;;;;;13.63;6.45;;;;;;;3.35;100.00;96236.97;1022527;29;20035;-71
2022/11/03 01:52:55;;;;;;;11.68;6.53;;;;;;;3.25;100.00;96231.41;1018934;29;20275;-71
2022/11/03 01:53:26;;;;;;;8.80;5.85;;;;;;;3.25;100.00;96226.22;1020055;29;20981;-70
2022/11/03 01:53:57;;;;;;;10.60;5.82;;;;;;;3.31;100.00;96230.59;1027472;28;20317;-71
2022/11/03 01:54:27;;;;;;;9.23;5.75;;;;;;;3.26;100.00;96227.84;1031313;28;20022;-71
2022/11/03 01:54:59;;;;;;;11.90;5.95;;;;;;;3.23;100.00;96228.25;1027279;28;20484;-71
2022/11/03 01:55:38;;;;;;;11.48;6.10;;;;;;;3.25;100.00;96229.63;1030907;28;20033;-72
2022/11/03 01:56:09;;;;;;;14.13;5.78;;;;;;;3.28;100.00;96231.00;1020848;29;20275;-69
2022/11/03 01:56:40;;;;;;;9.60;5.28;;;;;;;3.25;100.00;96221.03;1028782;28;20278;-70
2022/11/03 01:57:14;;;;;;;9.98;6.07;;;;;;;3.27;100.00;96226.81;1019282;29;20035;-72
2022/11/03 01:57:58;;;;;;;10.85;5.47;;;;;;;3.20;100.00;96220.88;1027301;28;20278;-72
2022/11/03 01:58:30;;;;;;;11.57;5.90;;;;;;;3.25;100.00;96237.41;1025344;28;20746;-71
2022/11/03 01:59:00;;;;;;;10.55;6.05;;;;;;;3.23;100.00;96231.63;1027310;28;20360;-70
2022/11/03 01:59:31;;;;;;;10.63;6.22;;;;;;;3.24;100.00;96235.00;1031285;28;20280;-70
2022/11/03 02:00:01;;;;;;;10.15;6.13;;;;;;;3.17;100.00;96219.47;1027297;28;20093;-70
2022/11/03 02:00:32;;;;;;;8.27;5.40;;;;;;;3.13;100.00;96217.50;1031290;28;20030;-70
2022/11/03 02:01:02;;;;;;;9.25;5.80;;;;;;;3.18;100.00;96231.44;1027596;28;20542;-69
2022/11/03 02:01:33;;;;;;;9.40;5.57;;;;;;;3.16;100.00;96228.25;1023280;29;20557;-70
2022/11/03 02:02:03;;;;;;;10.23;5.25;;;;;;;3.16;100.00;96232.66;1027260;28;20026;-71
2022/11/03 02:02:34;;;;;;;12.30;5.63;;;;;;;3.14;100.00;96235.44;1026732;28;20053;-70
2022/11/03 02:03:04;;;;;;;9.88;5.22;;;;;;;3.09;100.00;96221.50;1023305;29;20028;-69
2022/11/03 02:03:37;;;;;;;11.18;5.80;;;;;;;3.14;100.00;96230.25;1023163;28;20362;-71
2022/11/03 02:04:10;;;;;;;12.88;5.68;;;;;;;3.14;100.00;96232.84;1035380;28;20025;-71
2022/11/03 02:04:40;;;;;;;16.58;6.22;;;;;;;3.13;100.00;96222.69;1035426;28;20351;-71
2022/11/03 02:05:14;;;;;;;18.35;6.05;;;;;;;3.11;100.00;96220.28;1027543;28;20738;-70
2022/11/03 02:05:44;;;;;;;12.70;5.93;;;;;;;3.06;100.00;96207.16;1027383;28;20055;-71
2022/11/03 02:06:15;;;;;;;13.18;5.93;;;;;;;3.15;100.00;96225.84;1027875;28;20277;-71
2022/11/03 02:06:48;;;;;;;17.00;6.40;;;;;;;3.12;100.00;96213.28;1027705;28;20104;-71
2022/11/03 02:07:23;;;;;;;10.07;5.90;;;;;;;3.14;100.00;96222.47;1019376;29;20027;-73
2022/11/03 02:08:14;;;;;;;17.55;5.95;;;;;;;3.15;100.00;96210.28;1016669;29;20364;-70
2022/11/03 02:08:50;;;;;;;10.15;5.78;;;;;;;3.14;100.00;96213.91;1027141;28;20345;-70
2022/11/03 02:09:23;;;;;;;22.30;6.57;;;;;;;3.12;100.00;96208.09;1027432;28;20018;-71
2022/11/03 02:09:54;;;;;;;10.45;6.05;;;;;;;3.14;100.00;96214.69;1031251;28;20265;-71
2022/11/03 02:10:24;;;;;;;13.00;6.30;;;;;;;3.14;100.00;96208.72;1030249;28;20521;-71
2022/11/03 02:10:55;;;;;;;13.60;5.97;;;;;;;3.09;100.00;96200.75;1027256;28;20030;-70
2022/11/03 02:12:14;;;;;;;11.48;6.28;;;;;;;3.13;100.00;96201.94;1025033;28;20582;-69
2022/11/03 02:12:45;;;;;;;9.77;6.10;;;;;;;3.08;100.00;96194.75;1027148;28;20277;-71
2022/11/03 02:13:18;;;;;;;12.13;6.22;;;;;;;3.10;100.00;96197.16;1023777;29;20011;-71
2022/11/03 02:13:48;;;;;;;9.88;5.80;;;;;;;3.12;100.00;96206.34;1025282;28;20063;-70
2022/11/03 02:14:19;;;;;;;11.45;6.60;;;;;;;3.09;100.00;96193.00;1027783;28;20263;-70
2022/11/03 02:14:58;;;;;;;11.73;6.47;;;;;;;3.07;100.00;96188.00;1019211;29;20030;-71
2022/11/03 02:15:28;;;;;;;14.95;6.68;;;;;;;3.05;100.00;96185.63;1017278;29;20012;-70
2022/11/03 02:15:59;;;;;;;13.13;6.20;;;;;;;3.12;100.00;96189.97;1026170;28;20270;-71
2022/11/03 02:16:30;;;;;;;8.13;5.40;;;;;;;3.10;100.00;96192.78;1023129;29;20023;-71
2022/11/03 02:17:02;;;;;;;12.73;6.45;;;;;;;3.12;100.00;96189.97;1023997;28;20011;-71
2022/11/03 02:17:33;;;;;;;11.15;6.20;;;;;;;3.11;100.00;96194.34;1027186;28;20254;-71
2022/11/03 02:18:05;;;;;;;25.90;7.28;;;;;;;3.11;100.00;96190.97;1023153;29;20262;-71
2022/11/03 02:18:35;;;;;;;15.20;6.90;;;;;;;3.14;100.00;96193.16;1031726;28;20057;-70
2022/11/03 02:19:06;;;;;;;12.68;6.38;;;;;;;3.09;100.00;96185.22;1027139;28;20269;-70
2022/11/03 02:19:46;;;;;;;13.20;6.53;;;;;;;3.13;100.00;96196.75;1019401;29;20016;-71
2022/11/03 02:20:21;;;;;;;8.50;5.18;;;;;;;3.11;100.00;96183.97;1015489;29;20016;-70
2022/11/03 02:21:04;;;;;;;11.80;6.03;;;;;;;3.06;100.00;96179.41;1019298;29;20020;-70
2022/11/03 02:21:46;;;;;;;9.85;5.68;;;;;;;3.11;100.00;96183.97;1023106;29;20335;-70
2022/11/03 02:22:32;;;;;;;10.18;5.78;;;;;;;3.07;100.00;96177.63;1028180;28;20767;-71
2022/11/03 02:23:05;;;;;;;12.25;5.43;;;;;;;3.10;100.00;96187.59;1023339;29;20322;-71
2022/11/03 02:23:39;;;;;;;13.27;6.00;;;;;;;3.10;100.00;96177.22;1023334;29;20321;-71
2022/11/03 02:24:17;;;;;;;11.68;6.38;;;;;;;3.12;100.00;96180.41;1025318;28;20814;-71
2022/11/03 02:24:48;;;;;;;13.68;6.22;;;;;;;3.10;100.00;96172.03;1025441;28;20258;-70
2022/11/03 02:25:33;;;;;;;11.40;5.80;;;;;;;3.13;100.00;96173.44;1019144;29;20279;-70
2022/11/03 02:26:05;;;;;;;8.55;5.82;;;;;;;3.11;100.00;96167.63;1025314;28;20827;-71
2022/11/03 02:26:35;;;;;;;11.82;6.20;;;;;;;3.11;100.00;96172.81;1023488;28;21397;-73
2022/11/03 02:27:05;;;;;;;10.82;7.07;;;;;;;3.07;100.00;96162.84;1020258;29;20255;-71
2022/11/03 02:27:36;;;;;;;12.48;7.10;;;;;;;3.10;100.00;96169.44;1030172;28;20015;-70
2022/11/03 02:28:06;;;;;;;13.65;6.60;;;;;;;3.11;100.00;96167.63;1029431;28;20030;-70
2022/11/03 02:28:37;;;;;;;10.25;6.50;;;;;;;3.11;100.00;96170.22;1034397;28;20518;-70
2022/11/03 02:29:07;;;;;;;12.63;6.85;;;;;;;3.11;100.00;96167.63;1027711;28;20467;-70
2022/11/03 02:29:41;;;;;;;14.02;7.03;;;;;;;3.10;100.00;96166.06;1026740;28;20138;-71
2022/11/03 02:30:14;;;;;;;10.93;6.80;;;;;;;3.02;100.00;96154.91;1023094;28;20512;-71
2022/11/03 02:31:07;;;;;;;10.82;6.38;;;;;;;3.11;100.00;96172.81;1024444;28;20274;-70
2022/11/03 02:31:41;;;;;;;12.75;6.05;;;;;;;3.10;100.00;96169.44;1018843;29;20275;-70
2022/11/03 02:32:21;;;;;;;18.75;7.43;;;;;;;3.10;100.00;96171.22;1029886;28;20664;-69
2022/11/03 02:32:56;;;;;;;10.55;5.78;;;;;;;3.10;100.00;96176.41;1038460;28;20634;-72
2022/11/03 02:33:39;;;;;;;11.95;5.70;;;;;;;3.05;100.00;96170.06;1034721;28;20483;-71
2022/11/03 02:34:13;;;;;;;9.93;5.65;;;;;;;3.06;100.00;96170.84;1026666;28;20276;-72
2022/11/03 02:35:15;;;;;;;9.93;5.65;;;;;;;3.02;100.00;96165.28;1021206;29;20282;-73
2022/11/03 02:35:50;;;;;;;10.85;5.63;;;;;;;3.00;100.00;96158.69;1026324;28;20857;-73
2022/11/03 02:36:43;;;;;;;11.75;5.53;;;;;;;2.92;100.00;96151.13;1019868;29;20844;-72
2022/11/03 02:37:16;;;;;;;9.43;5.55;;;;;;;2.95;100.00;96159.31;1014796;29;20291;-71
2022/11/03 02:37:47;;;;;;;14.50;6.03;;;;;;;2.96;100.00;96163.50;1018830;29;20791;-72